createdAt,value
2024-02-13T00:00:13.019Z,7.40
2024-02-13T00:03:01.617Z,7.37
2024-02-13T00:05:30.759Z,7.35
2024-02-13T00:08:01.420Z,7.33
2024-02-13T00:10:30.558Z,7.31
2024-02-13T00:12:59.632Z,7.28
2024-02-13T00:15:28.394Z,7.25
2024-02-13T00:17:57.090Z,7.22
2024-02-13T00:20:25.774Z,7.19
2024-02-13T00:22:54.208Z,7.15
2024-02-13T00:25:22.825Z,7.10
2024-02-13T00:27:51.986Z,7.06
2024-02-13T00:30:20.567Z,7.01
2024-02-13T00:32:49.232Z,6.97
2024-02-13T00:35:18.418Z,6.94
2024-02-13T00:37:47.169Z,6.92
2024-02-13T00:40:15.793Z,6.91
2024-02-13T00:42:44.342Z,6.90
2024-02-13T00:45:13.329Z,6.89
2024-02-13T00:47:42.449Z,6.88
2024-02-13T00:50:11.607Z,6.87
2024-02-13T00:52:42.811Z,6.86
2024-02-13T00:55:12.003Z,6.85
2024-02-13T00:57:40.440Z,6.83
2024-02-13T01:00:13.261Z,6.83
2024-02-13T01:02:41.951Z,6.82
2024-02-13T01:05:10.936Z,6.79
2024-02-13T01:07:39.562Z,6.76
2024-02-13T01:10:09.876Z,6.74
2024-02-13T01:12:40.198Z,6.72
2024-02-13T01:15:10.661Z,6.68
2024-02-13T01:17:39.286Z,6.65
2024-02-13T01:20:12.074Z,6.62
2024-02-13T01:22:42.835Z,6.60
2024-02-13T01:25:14.555Z,6.59
2024-02-13T01:27:42.944Z,6.59
2024-02-13T01:30:14.585Z,6.57
2024-02-13T01:32:43.411Z,6.56
2024-02-13T01:35:14.028Z,6.56
2024-02-13T01:37:42.534Z,6.54
2024-02-13T01:40:13.162Z,6.53
2024-02-13T01:42:41.621Z,6.53
2024-02-13T01:45:13.045Z,6.52
2024-02-13T01:47:43.939Z,6.50
2024-02-13T01:50:14.777Z,6.46
2024-02-13T01:52:43.406Z,6.43
2024-02-13T01:55:13.516Z,6.41
2024-02-13T01:57:42.093Z,6.41
2024-02-13T02:00:14.395Z,6.40
2024-02-13T02:02:46.116Z,6.40
2024-02-13T02:05:15.401Z,6.38
2024-02-13T02:07:44.320Z,6.37
2024-02-13T02:10:12.939Z,6.36
2024-02-13T02:12:41.933Z,6.32
2024-02-13T02:15:11.368Z,6.29
2024-02-13T02:17:40.636Z,6.29
2024-02-13T02:20:12.885Z,6.28
2024-02-13T02:22:46.316Z,6.27
2024-02-13T02:25:17.027Z,6.27
2024-02-13T02:27:45.501Z,6.27
2024-02-13T02:30:14.695Z,6.25
2024-02-13T02:32:43.200Z,6.22
2024-02-13T02:35:11.814Z,6.20
2024-02-13T02:37:42.793Z,6.17
2024-02-13T02:40:11.884Z,6.14
2024-02-13T02:42:40.448Z,6.11
2024-02-13T02:45:10.022Z,6.10
2024-02-13T02:47:38.500Z,6.08
2024-02-13T02:50:08.348Z,6.07
2024-02-13T02:52:36.876Z,6.06
2024-02-13T02:55:07.362Z,6.07
2024-02-13T02:57:36.179Z,6.07
2024-02-13T03:00:07.777Z,6.08
2024-02-13T03:02:36.792Z,6.09
2024-02-13T03:05:06.799Z,6.07
2024-02-13T03:07:35.225Z,6.07
2024-02-13T03:10:06.525Z,6.05
2024-02-13T03:12:36.709Z,6.03
2024-02-13T03:15:06.379Z,6.00
2024-02-13T03:17:37.974Z,5.99
2024-02-13T03:20:10.669Z,5.98
2024-02-13T03:22:39.218Z,5.98
2024-02-13T03:25:09.696Z,5.97
2024-02-13T03:27:38.335Z,5.96
2024-02-13T03:30:10.785Z,5.96
2024-02-13T03:32:39.316Z,5.95
2024-02-13T03:35:09.149Z,5.93
2024-02-13T03:37:37.812Z,5.91
2024-02-13T03:40:09.213Z,5.90
2024-02-13T03:42:37.720Z,5.90
2024-02-13T03:45:07.604Z,5.90
2024-02-13T03:47:36.462Z,5.91
2024-02-13T03:50:06.768Z,5.91
2024-02-13T03:52:36.741Z,5.88
2024-02-13T03:55:06.401Z,5.85
2024-02-13T03:57:36.289Z,5.83
2024-02-13T04:00:07.904Z,5.79
2024-02-13T04:02:37.011Z,5.77
2024-02-13T04:05:06.426Z,5.74
2024-02-13T04:07:36.261Z,5.73
2024-02-13T04:10:05.990Z,5.72
2024-02-13T04:12:34.585Z,5.69
2024-02-13T04:15:03.666Z,5.66
2024-02-13T04:17:32.349Z,5.63
2024-02-13T04:20:01.631Z,5.60
2024-02-13T04:22:30.168Z,5.59
2024-02-13T04:24:58.992Z,5.58
2024-02-13T04:27:27.578Z,5.56
2024-02-13T04:29:56.882Z,5.55
2024-02-13T04:32:28.025Z,5.55
2024-02-13T04:34:57.081Z,5.54
2024-02-13T04:37:26.109Z,5.52
2024-02-13T04:39:54.609Z,5.51
2024-02-13T04:42:32.363Z,5.49
2024-02-13T04:45:01.401Z,5.47
2024-02-13T04:47:30.435Z,5.46
2024-02-13T04:50:00.579Z,5.44
2024-02-13T04:52:29.959Z,5.43
2024-02-13T04:54:58.506Z,5.42
2024-02-13T04:57:27.815Z,5.39
2024-02-13T04:59:57.951Z,5.36
2024-02-13T05:02:26.987Z,5.34
2024-02-13T05:05:13.785Z,5.32
2024-02-13T05:07:45.437Z,5.29
2024-02-13T05:10:14.029Z,5.28
2024-02-13T05:12:44.115Z,5.26
2024-02-13T05:15:12.689Z,5.24
2024-02-13T05:17:41.515Z,5.22
2024-02-13T05:20:12.538Z,5.20
2024-02-13T05:22:41.446Z,5.18
2024-02-13T05:25:12.179Z,5.16
2024-02-13T05:27:40.711Z,5.14
2024-02-13T05:30:10.649Z,5.12
2024-02-13T05:32:39.508Z,5.11
2024-02-13T05:35:09.223Z,5.09
2024-02-13T05:37:38.283Z,5.09
2024-02-13T05:40:10.989Z,5.07
2024-02-13T05:42:39.961Z,5.08
2024-02-13T05:45:09.738Z,5.09
2024-02-13T05:47:38.442Z,5.09
2024-02-13T05:50:08.418Z,5.08
2024-02-13T05:52:37.949Z,5.08
2024-02-13T05:55:07.230Z,5.08
2024-02-13T05:57:38.816Z,5.07
2024-02-13T06:00:14.956Z,5.05
2024-02-13T06:02:43.726Z,5.05
2024-02-13T06:05:14.952Z,5.05
2024-02-13T06:07:45.888Z,5.06
2024-02-13T06:10:16.889Z,5.06
2024-02-13T06:12:46.187Z,5.07
2024-02-13T06:15:14.857Z,5.08
2024-02-13T06:17:44.130Z,5.09
2024-02-13T06:20:13.381Z,5.10
2024-02-13T06:22:41.873Z,5.11
2024-02-13T06:25:13.407Z,5.11
2024-02-13T06:27:41.980Z,5.11
2024-02-13T06:30:13.256Z,5.10
2024-02-13T06:32:41.766Z,5.11
2024-02-13T06:35:11.036Z,5.11
2024-02-13T06:37:40.585Z,5.12
2024-02-13T06:40:11.831Z,5.11
2024-02-13T06:42:40.319Z,5.11
2024-02-13T06:45:10.964Z,5.10
2024-02-13T06:47:39.915Z,5.11
2024-02-13T06:50:12.619Z,5.12
2024-02-13T06:52:42.281Z,5.13
2024-02-13T06:55:11.349Z,5.14
2024-02-13T06:57:39.834Z,5.14
2024-02-13T07:00:12.047Z,5.16
2024-02-13T07:02:40.593Z,5.16
2024-02-13T07:05:11.693Z,5.17
2024-02-13T07:07:46.891Z,5.17
2024-02-13T07:10:17.846Z,5.19
2024-02-13T07:12:46.749Z,5.20
2024-02-13T07:15:15.819Z,5.22
2024-02-13T07:17:52.970Z,5.23
2024-02-13T07:20:28.739Z,5.26
2024-02-13T07:22:57.454Z,5.27
2024-02-13T07:25:26.158Z,5.29
2024-02-13T07:27:55.857Z,5.30
2024-02-13T07:30:24.574Z,5.33
2024-02-13T07:32:53.344Z,5.35
2024-02-13T07:35:22.610Z,5.37
2024-02-13T07:37:51.079Z,5.39
2024-02-13T07:40:19.861Z,5.42
2024-02-13T07:42:49.265Z,5.45
2024-02-13T07:45:18.023Z,5.48
2024-02-13T07:47:47.655Z,5.50
2024-02-13T07:50:16.462Z,5.53
2024-02-13T07:52:45.290Z,5.54
2024-02-13T07:55:13.836Z,5.56
2024-02-13T07:57:42.343Z,5.58
2024-02-13T08:00:13.707Z,5.61
2024-02-13T08:02:42.281Z,5.64
2024-02-13T08:05:12.826Z,5.67
2024-02-13T08:07:41.819Z,5.72
2024-02-13T08:10:11.845Z,5.76
2024-02-13T08:12:40.341Z,5.79
2024-02-13T08:15:10.878Z,5.80
2024-02-13T08:17:39.444Z,5.83
2024-02-13T08:20:09.867Z,5.85
2024-02-13T08:22:40.660Z,5.88
2024-02-13T08:25:10.920Z,5.92
2024-02-13T08:27:39.592Z,5.96
2024-02-13T08:30:10.862Z,5.97
2024-02-13T08:32:42.785Z,6.00
2024-02-13T08:35:12.181Z,6.01
2024-02-13T08:37:41.116Z,6.03
2024-02-13T08:40:13.860Z,6.04
2024-02-13T08:42:42.352Z,6.06
2024-02-13T08:45:11.622Z,6.09
2024-02-13T08:47:41.386Z,6.11
2024-02-13T08:50:13.418Z,6.15
2024-02-13T08:52:42.343Z,6.19
2024-02-13T08:55:11.812Z,6.20
2024-02-13T08:57:40.374Z,6.21
2024-02-13T09:00:11.273Z,6.24
2024-02-13T09:02:40.015Z,6.27
2024-02-13T09:05:09.407Z,6.29
2024-02-13T09:07:39.205Z,6.32
2024-02-13T09:10:12.531Z,6.34
2024-02-13T09:12:43.550Z,6.35
2024-02-13T09:15:12.165Z,6.36
2024-02-13T09:17:42.258Z,6.37
2024-02-13T09:20:15.067Z,6.39
2024-02-13T09:22:45.142Z,6.41
2024-02-13T09:25:13.966Z,6.42
2024-02-13T09:27:44.393Z,6.43
2024-02-13T09:30:14.622Z,6.46
2024-02-13T09:32:47.142Z,6.50
2024-02-13T09:35:16.535Z,6.53
2024-02-13T09:37:45.117Z,6.57
2024-02-13T09:40:14.701Z,6.61
2024-02-13T09:42:43.535Z,6.63
2024-02-13T09:45:13.694Z,6.62
2024-02-13T09:47:43.392Z,6.62
2024-02-13T09:50:13.422Z,6.64
2024-02-13T09:52:52.273Z,6.64
2024-02-13T09:55:21.063Z,6.63
2024-02-13T09:57:54.341Z,6.63
2024-02-13T10:00:23.718Z,6.64
2024-02-13T10:02:52.414Z,6.64
2024-02-13T10:05:21.549Z,6.65
2024-02-13T10:07:50.967Z,6.66
2024-02-13T10:10:19.429Z,6.68
2024-02-13T10:12:55.890Z,6.68
2024-02-13T10:15:25.123Z,6.70
2024-02-13T10:17:54.846Z,6.71
2024-02-13T10:20:24.488Z,6.73
2024-02-13T10:22:55.372Z,6.75
2024-02-13T10:25:30.180Z,6.77
2024-02-13T10:28:00.851Z,6.79
2024-02-13T10:30:30.906Z,6.79
2024-02-13T10:33:02.019Z,6.80
2024-02-13T10:35:32.809Z,6.79
2024-02-13T10:38:03.843Z,6.79
2024-02-13T10:40:34.788Z,6.78
2024-02-13T10:43:04.258Z,6.78
2024-02-13T10:45:33.214Z,6.78
2024-02-13T10:48:10.389Z,6.79
2024-02-13T10:50:41.549Z,6.81
2024-02-13T10:53:12.338Z,6.82
2024-02-13T10:55:44.441Z,6.83
2024-02-13T10:58:21.203Z,6.86
2024-02-13T11:00:56.995Z,6.89
2024-02-13T11:03:26.774Z,6.91
2024-02-13T11:05:55.449Z,6.91
2024-02-13T11:08:24.141Z,6.92
2024-02-13T11:10:54.897Z,6.92
2024-02-13T11:13:26.727Z,6.91
2024-02-13T11:15:58.542Z,6.91
2024-02-13T11:18:29.808Z,6.92
2024-02-13T11:21:02.265Z,6.93
2024-02-13T11:23:31.052Z,6.97
2024-02-13T11:26:00.579Z,7.05
2024-02-13T11:28:35.515Z,7.13
2024-02-13T11:31:15.246Z,7.19
2024-02-13T11:34:04.791Z,7.23
2024-02-13T11:36:35.059Z,7.32
2024-02-13T11:39:04.890Z,7.38
2024-02-13T11:41:35.080Z,7.39
2024-02-13T11:44:09.813Z,7.38
2024-02-13T11:46:40.796Z,7.37
2024-02-13T11:49:10.435Z,7.10
2024-02-13T11:51:39.381Z,6.84
2024-02-13T11:54:08.138Z,6.58
2024-02-13T11:56:37.255Z,6.40
2024-02-13T11:59:07.295Z,6.23
2024-02-13T12:01:37.874Z,6.15
2024-02-13T12:04:08.421Z,6.11
2024-02-13T12:06:37.044Z,6.07
2024-02-13T12:09:08.114Z,6.03
2024-02-13T12:11:37.517Z,6.01
2024-02-13T12:14:06.405Z,6.00
2024-02-13T12:16:36.454Z,5.99
2024-02-13T12:19:06.913Z,5.97
2024-02-13T12:21:42.156Z,5.95
2024-02-13T12:24:12.088Z,5.96
2024-02-13T12:26:41.000Z,5.97
2024-02-13T12:29:15.750Z,6.00
2024-02-13T12:31:46.651Z,6.03
2024-02-13T12:34:20.188Z,6.10
2024-02-13T12:36:57.627Z,6.16
2024-02-13T12:39:27.452Z,6.20
2024-02-13T12:41:57.951Z,6.22
2024-02-13T12:44:26.657Z,6.26
2024-02-13T12:46:55.660Z,6.33
2024-02-13T12:49:27.613Z,6.39
2024-02-13T12:51:56.401Z,6.47
2024-02-13T12:54:27.668Z,6.56
2024-02-13T12:56:58.179Z,6.62
2024-02-13T12:59:28.415Z,6.67
2024-02-13T13:01:59.644Z,6.72
2024-02-13T13:04:28.929Z,6.78
2024-02-13T13:06:57.768Z,6.82
2024-02-13T13:09:28.704Z,6.82
2024-02-13T13:11:58.020Z,6.81
2024-02-13T13:14:28.259Z,6.79
2024-02-13T13:16:59.283Z,6.77
2024-02-13T13:19:30.021Z,6.71
2024-02-13T13:21:59.184Z,6.56
2024-02-13T13:24:29.528Z,6.43
2024-02-13T13:26:58.000Z,6.30
2024-02-13T13:29:26.624Z,6.19
2024-02-13T13:31:55.997Z,6.08
2024-02-13T13:34:26.567Z,5.97
2024-02-13T13:36:55.554Z,5.89
2024-02-13T13:39:29.008Z,5.83
2024-02-13T13:42:08.613Z,5.76
2024-02-13T13:44:37.430Z,5.71
2024-02-13T13:47:08.070Z,5.66
2024-02-13T13:49:38.351Z,5.63
2024-02-13T13:52:07.862Z,5.62
2024-02-13T13:54:36.563Z,5.61
2024-02-13T13:57:05.440Z,5.63
2024-02-13T13:59:34.144Z,5.64
2024-02-13T14:02:02.719Z,5.63
2024-02-13T14:04:31.255Z,5.64
2024-02-13T14:07:00.707Z,5.65
2024-02-13T14:09:32.183Z,5.67
2024-02-13T14:12:05.984Z,5.71
2024-02-13T14:14:34.876Z,5.76
2024-02-13T14:17:06.916Z,5.80
2024-02-13T14:19:36.313Z,5.87
2024-02-13T14:22:12.022Z,5.92
2024-02-13T14:24:41.133Z,5.95
2024-02-13T14:27:11.502Z,5.96
2024-02-13T14:29:43.494Z,5.97
2024-02-13T14:32:12.602Z,5.98
2024-02-13T14:34:41.198Z,5.97
2024-02-13T14:37:10.692Z,5.97
2024-02-13T14:39:39.236Z,5.98
2024-02-13T14:42:09.454Z,5.98
2024-02-13T14:44:37.948Z,5.97
2024-02-13T14:47:09.217Z,5.97
2024-02-13T14:49:37.644Z,5.99
2024-02-13T14:52:12.825Z,6.02
2024-02-13T14:54:46.236Z,6.03
2024-02-13T14:57:19.882Z,6.02
2024-02-13T14:59:48.746Z,6.03
2024-02-13T15:02:18.821Z,6.03
2024-02-13T15:04:50.187Z,6.02
2024-02-13T15:07:19.675Z,6.00
2024-02-13T15:09:51.937Z,5.98
2024-02-13T15:12:23.706Z,5.98
2024-02-13T15:14:53.534Z,5.99
2024-02-13T15:17:22.295Z,6.00
2024-02-13T15:19:52.596Z,6.00
2024-02-13T15:22:28.422Z,6.01
2024-02-13T15:25:02.092Z,6.00
2024-02-13T15:27:31.590Z,6.00
2024-02-13T15:30:01.780Z,5.99
2024-02-13T15:32:30.532Z,5.98
2024-02-13T15:35:01.448Z,5.96
2024-02-13T15:37:50.342Z,5.95
2024-02-13T15:40:46.314Z,5.92
2024-02-13T15:43:35.525Z,5.86
2024-02-13T15:46:27.375Z,5.81
2024-02-13T15:48:56.690Z,5.78
2024-02-13T15:51:29.356Z,5.75
2024-02-13T15:54:00.961Z,5.71
2024-02-13T15:56:35.863Z,5.69
2024-02-13T15:59:04.830Z,5.66
2024-02-13T16:01:33.401Z,5.65
2024-02-13T16:04:02.772Z,5.65
2024-02-13T16:06:37.080Z,5.65
2024-02-13T16:09:06.509Z,5.63
2024-02-13T16:11:35.456Z,5.61
2024-02-13T16:14:03.864Z,5.61
2024-02-13T16:16:32.388Z,5.61
2024-02-13T16:19:04.094Z,5.61
2024-02-13T16:21:32.758Z,5.60
2024-02-13T16:24:02.367Z,5.59
2024-02-13T16:26:31.693Z,5.59
2024-02-13T16:29:00.248Z,5.56
2024-02-13T16:31:29.041Z,5.54
2024-02-13T16:33:58.384Z,5.54
2024-02-13T16:36:26.890Z,5.53
2024-02-13T16:38:55.451Z,5.54
2024-02-13T16:41:26.680Z,5.53
2024-02-13T16:43:55.196Z,5.53
2024-02-13T16:46:32.629Z,5.54
2024-02-13T16:49:03.262Z,5.57
2024-02-13T16:51:33.586Z,5.59
2024-02-13T16:54:02.259Z,5.60
2024-02-13T16:56:32.843Z,5.59
2024-02-13T16:59:04.589Z,5.58
2024-02-13T17:01:33.462Z,5.56
2024-02-13T17:04:02.968Z,5.55
2024-02-13T17:06:31.840Z,5.55
2024-02-13T17:09:01.687Z,5.55
2024-02-13T17:11:30.485Z,5.54
2024-02-13T17:13:58.918Z,5.53
2024-02-13T17:16:27.619Z,5.52
2024-02-13T17:18:56.501Z,5.51
2024-02-13T17:21:25.253Z,5.51
2024-02-13T17:23:53.872Z,5.51
2024-02-13T17:26:23.686Z,5.51
2024-02-13T17:28:52.111Z,5.51
2024-02-13T17:31:20.578Z,5.51
2024-02-13T17:33:49.281Z,5.51
2024-02-13T17:36:17.884Z,5.51
2024-02-13T17:38:48.705Z,5.50
2024-02-13T17:41:18.066Z,5.49
2024-02-13T17:43:47.355Z,5.48
2024-02-13T17:46:15.884Z,5.48
2024-02-13T17:48:44.586Z,5.48
2024-02-13T17:51:13.262Z,5.47
2024-02-13T17:53:41.946Z,5.46
2024-02-13T17:56:10.780Z,5.46
2024-02-13T17:58:39.583Z,5.47
2024-02-13T18:01:09.845Z,5.46
2024-02-13T18:03:38.761Z,5.47
2024-02-13T18:06:08.205Z,5.46
2024-02-13T18:08:36.842Z,5.47
2024-02-13T18:11:05.681Z,5.48
2024-02-13T18:13:34.128Z,5.47
2024-02-13T18:16:04.177Z,5.46
2024-02-13T18:18:32.769Z,5.47
2024-02-13T18:21:01.630Z,5.46
2024-02-13T18:23:30.288Z,5.47
2024-02-13T18:25:58.745Z,5.47
2024-02-13T18:28:28.444Z,5.47
2024-02-13T18:31:00.131Z,5.47
2024-02-13T18:33:28.786Z,5.47
2024-02-13T18:35:57.484Z,5.47
2024-02-13T18:38:26.216Z,5.47
2024-02-13T18:40:56.998Z,5.48
2024-02-13T18:43:26.754Z,5.45
2024-02-13T18:45:56.127Z,5.45
2024-02-13T18:48:24.748Z,5.45
2024-02-13T18:50:53.480Z,5.43
2024-02-13T18:53:23.823Z,5.42
2024-02-13T18:55:52.951Z,5.43
2024-02-13T18:58:21.662Z,5.42
2024-02-13T19:00:50.483Z,5.42
2024-02-13T19:03:20.766Z,5.41
2024-02-13T19:05:49.946Z,5.42
2024-02-13T19:08:19.299Z,5.41
2024-02-13T19:10:52.436Z,5.40
2024-02-13T19:13:21.051Z,5.40
2024-02-13T19:15:50.113Z,5.40
2024-02-13T19:18:18.767Z,5.41
2024-02-13T19:20:47.923Z,5.41
2024-02-13T19:23:22.144Z,5.41
2024-02-13T19:25:51.301Z,5.41
2024-02-13T19:28:19.907Z,5.40
2024-02-13T19:30:50.333Z,5.41
2024-02-13T19:33:19.761Z,5.41
2024-02-13T19:35:49.228Z,5.41
2024-02-13T19:38:19.954Z,5.40
2024-02-13T19:40:48.845Z,5.40
2024-02-13T19:43:17.205Z,5.40
2024-02-13T19:45:45.844Z,5.40
2024-02-13T19:48:15.555Z,5.41
2024-02-13T19:50:44.361Z,5.42
2024-02-13T19:53:13.617Z,5.43
2024-02-13T19:55:43.388Z,5.43
2024-02-13T19:58:11.800Z,5.43
2024-02-13T20:00:40.294Z,5.43
2024-02-13T20:03:09.575Z,5.43
2024-02-13T20:05:38.209Z,5.42
2024-02-13T20:08:10.307Z,5.41
2024-02-13T20:10:39.202Z,5.41
2024-02-13T20:13:07.844Z,5.41
2024-02-13T20:15:37.254Z,5.41
2024-02-13T20:18:06.669Z,5.40
2024-02-13T20:20:35.370Z,5.41
2024-02-13T20:23:04.078Z,5.41
2024-02-13T20:25:32.784Z,5.41
2024-02-13T20:28:01.898Z,5.41
2024-02-13T20:30:32.580Z,5.41
2024-02-13T20:33:01.393Z,5.40
2024-02-13T20:35:30.081Z,5.38
2024-02-13T20:37:58.783Z,5.39
2024-02-13T20:40:27.447Z,5.38
2024-02-13T20:42:55.891Z,5.38
2024-02-13T20:45:24.531Z,5.40
2024-02-13T20:47:54.023Z,5.40
2024-02-13T20:50:25.181Z,5.40
2024-02-13T20:52:54.104Z,5.40
2024-02-13T20:55:23.153Z,5.40
2024-02-13T20:57:55.955Z,5.41
2024-02-13T21:00:25.271Z,5.40
2024-02-13T21:02:53.812Z,5.38
2024-02-13T21:05:25.116Z,5.38
2024-02-13T21:07:54.112Z,5.37
2024-02-13T21:10:26.901Z,5.36
2024-02-13T21:12:56.107Z,5.34
2024-02-13T21:15:24.532Z,5.33
2024-02-13T21:17:53.316Z,5.32
2024-02-13T21:20:28.069Z,5.31
2024-02-13T21:23:15.314Z,5.31
2024-02-13T21:25:44.217Z,5.30
2024-02-13T21:28:12.679Z,5.30
2024-02-13T21:30:41.075Z,5.29
2024-02-13T21:33:14.620Z,5.28
2024-02-13T21:35:43.139Z,5.27
2024-02-13T21:38:14.207Z,5.26
2024-02-13T21:40:43.180Z,5.25
2024-02-13T21:43:12.827Z,5.24
2024-02-13T21:45:41.638Z,5.22
2024-02-13T21:48:10.592Z,5.20
2024-02-13T21:50:40.544Z,5.19
2024-02-13T21:53:09.477Z,5.18
2024-02-13T21:55:38.277Z,5.17
2024-02-13T21:58:06.893Z,5.16
2024-02-13T22:00:35.447Z,5.15
2024-02-13T22:03:06.009Z,5.14
2024-02-13T22:05:34.829Z,5.14
2024-02-13T22:08:03.358Z,5.14
2024-02-13T22:10:31.888Z,5.13
2024-02-13T22:13:00.715Z,5.10
2024-02-13T22:15:30.068Z,5.10
2024-02-13T22:17:58.596Z,5.09
2024-02-13T22:20:28.257Z,5.09
2024-02-13T22:22:56.711Z,5.08
2024-02-13T22:25:25.298Z,5.08
2024-02-13T22:27:54.082Z,5.07
2024-02-13T22:30:22.780Z,5.07
2024-02-13T22:32:52.285Z,5.07
2024-02-13T22:35:21.434Z,5.06
2024-02-13T22:37:50.064Z,5.05
2024-02-13T22:40:18.584Z,5.03
2024-02-13T22:42:47.076Z,5.02
2024-02-13T22:45:15.733Z,5.02
2024-02-13T22:47:44.412Z,5.01
2024-02-13T22:50:13.129Z,5.01
2024-02-13T22:52:42.062Z,5.01
2024-02-13T22:55:11.257Z,5.01
2024-02-13T22:57:39.665Z,5.01
2024-02-13T23:00:33.136Z,5.01
2024-02-13T23:03:03.323Z,5.00
2024-02-13T23:05:32.246Z,5.00
2024-02-13T23:08:00.802Z,5.00
2024-02-13T23:10:31.662Z,4.99
2024-02-13T23:13:00.260Z,4.99
2024-02-13T23:15:28.734Z,4.98
2024-02-13T23:17:57.656Z,4.96
2024-02-13T23:20:27.945Z,4.96
2024-02-13T23:22:56.522Z,4.96
2024-02-13T23:25:26.095Z,4.96
2024-02-13T23:27:54.783Z,4.96
2024-02-13T23:30:23.836Z,4.96
2024-02-13T23:32:52.526Z,4.96
2024-02-13T23:35:21.087Z,4.95
2024-02-13T23:37:49.489Z,4.94
2024-02-13T23:40:19.063Z,4.95
2024-02-13T23:42:52.554Z,4.94
2024-02-13T23:45:21.500Z,4.93
2024-02-13T23:47:50.120Z,4.94
2024-02-13T23:50:20.316Z,4.93
2024-02-13T23:52:48.919Z,4.92
2024-02-13T23:55:17.564Z,4.91
2024-02-13T23:57:46.658Z,4.89
